createdAt,value
2022-09-01T00:01:42.284Z,101911.19
2022-09-01T00:04:11.328Z,101907.63
2022-09-01T00:06:38.618Z,101903.59
2022-09-01T00:09:08.969Z,101905.53
2022-09-01T00:11:36.751Z,101898.69
2022-09-01T00:14:05.874Z,101899.88
2022-09-01T00:16:54.021Z,101902.81
2022-09-01T00:19:22.051Z,101893.78
2022-09-01T00:21:49.048Z,101891.00
2022-09-01T00:24:17.914Z,101890.38
2022-09-01T00:26:45.995Z,101890.28
2022-09-01T00:29:13.778Z,101892.84
2022-09-01T00:31:41.421Z,101884.44
2022-09-01T00:34:08.388Z,101881.31
2022-09-01T00:36:35.202Z,101888.66
2022-09-01T00:39:02.095Z,101883.41
2022-09-01T00:41:32.436Z,101881.81
2022-09-01T00:44:02.180Z,101888.22
2022-09-01T00:46:34.009Z,101889.31
2022-09-01T00:49:08.278Z,101883.56
2022-09-01T00:51:38.500Z,101880.03
2022-09-01T00:54:08.869Z,101881.97
2022-09-01T00:56:40.973Z,101881.34
2022-09-01T00:59:19.730Z,101874.81
2022-09-01T01:01:47.051Z,101873.94
2022-09-01T01:04:18.027Z,101869.78
2022-09-01T01:06:50.616Z,101870.63
2022-09-01T01:09:22.159Z,101868.31
2022-09-01T01:11:49.265Z,101864.50
2022-09-01T01:14:17.442Z,101863.19
2022-09-01T01:16:52.094Z,101859.16
2022-09-01T01:20:01.262Z,101854.66
2022-09-01T01:23:07.793Z,101847.38
2022-09-01T01:25:44.686Z,101854.19
2022-09-01T01:28:18.745Z,101857.72
2022-09-01T01:30:58.099Z,101849.94
2022-09-01T01:33:32.095Z,101850.13
2022-09-01T01:35:59.947Z,101847.59
2022-09-01T01:38:30.185Z,101850.03
2022-09-01T01:40:58.215Z,101847.91
2022-09-01T01:43:27.675Z,101845.66
2022-09-01T01:45:59.039Z,101845.66
2022-09-01T01:48:34.504Z,101840.94
2022-09-01T01:51:01.947Z,101848.44
2022-09-01T01:53:29.536Z,101842.13
2022-09-01T01:55:59.053Z,101843.09
2022-09-01T01:58:29.224Z,101837.97
2022-09-01T02:00:57.389Z,101833.50
2022-09-01T02:03:28.907Z,101822.09
2022-09-01T02:05:56.135Z,101831.72
2022-09-01T02:08:26.202Z,101831.91
2022-09-01T02:10:55.489Z,101823.44
2022-09-01T02:13:31.344Z,101831.31
2022-09-01T02:16:13.087Z,101831.75
2022-09-01T02:18:49.849Z,101829.38
2022-09-01T02:21:20.626Z,101831.19
2022-09-01T02:23:59.551Z,101819.72
2022-09-01T02:26:32.228Z,101827.13
2022-09-01T02:29:04.789Z,101821.81
2022-09-01T02:31:39.907Z,101820.75
2022-09-01T02:34:14.015Z,101829.09
2022-09-01T02:36:48.412Z,101819.59
2022-09-01T02:39:23.279Z,101818.53
2022-09-01T02:41:51.294Z,101822.13
2022-09-01T02:44:23.759Z,101831.47
2022-09-01T02:46:51.253Z,101820.22
2022-09-01T02:49:28.690Z,101814.47
2022-09-01T02:51:59.630Z,101820.38
2022-09-01T02:54:28.817Z,101814.28
2022-09-01T02:56:55.627Z,101804.66
2022-09-01T02:59:27.501Z,101813.72
2022-09-01T03:01:57.802Z,101810.22
2022-09-01T03:04:24.990Z,101804.03
2022-09-01T03:06:54.849Z,101799.84
2022-09-01T03:09:23.048Z,101798.25
2022-09-01T03:11:51.954Z,101794.41
2022-09-01T03:14:20.336Z,101792.25
2022-09-01T03:16:47.647Z,101787.25
2022-09-01T03:19:15.185Z,101791.75
2022-09-01T03:21:44.404Z,101786.69
2022-09-01T03:24:16.815Z,101785.22
2022-09-01T03:26:45.569Z,101789.06
2022-09-01T03:29:19.291Z,101786.25
2022-09-01T03:31:47.097Z,101784.56
2022-09-01T03:34:16.480Z,101779.13
2022-09-01T03:36:50.903Z,101781.13
2022-09-01T03:39:26.239Z,101779.53
2022-09-01T03:41:53.985Z,101776.66
2022-09-01T03:44:20.948Z,101774.06
2022-09-01T03:46:47.788Z,101775.81
2022-09-01T03:49:15.688Z,101774.31
2022-09-01T03:51:45.135Z,101776.78
2022-09-01T03:54:12.448Z,101775.59
2022-09-01T03:56:42.977Z,101777.22
2022-09-01T03:59:17.239Z,101774.56
2022-09-01T04:01:46.767Z,101770.69
2022-09-01T04:04:16.573Z,101765.88
2022-09-01T04:06:45.526Z,101770.47
2022-09-01T04:09:13.886Z,101766.53
2022-09-01T04:11:46.389Z,101760.22
2022-09-01T04:14:15.205Z,101762.78
2022-09-01T04:17:02.352Z,101756.59
2022-09-01T04:19:30.670Z,101755.28
2022-09-01T04:22:01.174Z,101747.19
2022-09-01T04:24:45.031Z,101751.13
2022-09-01T04:27:13.711Z,101750.06
2022-09-01T04:29:41.867Z,101761.28
2022-09-01T04:32:13.168Z,101752.50
2022-09-01T04:34:43.649Z,101755.38
2022-09-01T04:37:19.488Z,101751.44
2022-09-01T04:39:57.149Z,101758.59
2022-09-01T04:42:29.075Z,101757.94
2022-09-01T04:44:57.681Z,101757.41
2022-09-01T04:47:35.437Z,101749.59
2022-09-01T04:50:14.887Z,101751.81
2022-09-01T04:53:02.138Z,101755.06
2022-09-01T04:55:32.184Z,101749.84
2022-09-01T04:58:08.308Z,101756.97
2022-09-01T05:00:37.418Z,101752.19
2022-09-01T05:03:04.860Z,101749.16
2022-09-01T05:06:02.594Z,101750.75
2022-09-01T05:08:32.717Z,101746.31
2022-09-01T05:11:08.009Z,101751.41
2022-09-01T05:13:48.085Z,101750.75
2022-09-01T05:16:25.101Z,101747.88
2022-09-01T05:18:57.954Z,101748.22
2022-09-01T05:21:29.939Z,101741.41
2022-09-01T05:24:01.453Z,101739.47
2022-09-01T05:26:31.190Z,101742.47
2022-09-01T05:29:01.326Z,101743.69
2022-09-01T05:31:37.950Z,101743.13
2022-09-01T05:34:05.486Z,101749.53
2022-09-01T05:36:33.589Z,101745.28
2022-09-01T05:39:01.914Z,101748.59
2022-09-01T05:41:29.342Z,101744.63
2022-09-01T05:44:00.543Z,101749.63
2022-09-01T05:46:28.797Z,101748.38
2022-09-01T05:48:57.541Z,101757.63
2022-09-01T05:51:46.381Z,101752.53
2022-09-01T05:54:18.663Z,101751.06
2022-09-01T05:56:46.131Z,101747.22
2022-09-01T05:59:26.620Z,101741.47
2022-09-01T06:02:00.904Z,101748.13
2022-09-01T06:04:28.036Z,101754.19
2022-09-01T06:07:16.395Z,101758.84
2022-09-01T06:09:53.791Z,101761.28
2022-09-01T06:12:24.039Z,101749.72
2022-09-01T06:14:53.970Z,101749.16
2022-09-01T06:17:25.307Z,101754.19
2022-09-01T06:19:57.073Z,101756.75
2022-09-01T06:22:26.848Z,101754.41
2022-09-01T06:24:59.483Z,101751.13
2022-09-01T06:27:33.190Z,101756.78
2022-09-01T06:30:00.331Z,101749.63
2022-09-01T06:32:27.998Z,101757.31
2022-09-01T06:34:58.258Z,101754.75
2022-09-01T06:37:26.875Z,101757.31
2022-09-01T06:39:57.943Z,101755.38
2022-09-01T06:42:26.171Z,101753.41
2022-09-01T06:44:59.851Z,101744.59
2022-09-01T06:47:28.721Z,101744.31
2022-09-01T06:49:59.021Z,101745.22
2022-09-01T06:52:28.199Z,101741.44
2022-09-01T06:54:56.014Z,101737.81
2022-09-01T07:00:21.087Z,101729.22
2022-09-01T07:02:54.832Z,101735.34
2022-09-01T07:12:24.499Z,101727.53
2022-09-01T07:17:42.353Z,101729.72
2022-09-01T07:23:07.065Z,101731.75
2022-09-01T07:28:37.958Z,101738.19
2022-09-01T07:39:52.013Z,101736.63
2022-09-01T07:42:31.425Z,101731.38
2022-09-01T07:46:00.512Z,101743.38
2022-09-01T07:48:37.240Z,101740.38
2022-09-01T07:51:36.997Z,101735.03
2022-09-01T07:54:05.968Z,101743.38
2022-09-01T07:56:39.418Z,101741.47
2022-09-01T07:59:15.309Z,101744.75
2022-09-01T08:02:18.349Z,101742.00
2022-09-01T08:04:47.036Z,101732.19
2022-09-01T08:07:16.327Z,101732.13
2022-09-01T08:09:44.630Z,101731.94
2022-09-01T08:12:13.436Z,101738.25
2022-09-01T08:14:46.774Z,101730.41
2022-09-01T08:17:18.411Z,101731.00
2022-09-01T08:20:07.425Z,101721.78
2022-09-01T08:22:54.616Z,101722.63
2022-09-01T08:25:29.162Z,101720.63
2022-09-01T08:28:00.297Z,101719.53
2022-09-01T08:30:28.663Z,101716.09
2022-09-01T08:32:55.854Z,101722.91
2022-09-01T08:35:23.463Z,101720.94
2022-09-01T08:37:50.562Z,101722.75
2022-09-01T08:40:20.772Z,101716.56
2022-09-01T08:43:15.479Z,101714.75
2022-09-01T08:45:49.780Z,101724.38
2022-09-01T08:51:24.700Z,101724.34
2022-09-01T08:54:05.015Z,101721.94
2022-09-01T08:56:36.135Z,101719.63
2022-09-01T08:59:04.239Z,101718.03
2022-09-01T09:02:16.181Z,101722.06
2022-09-01T09:05:15.589Z,101723.50
2022-09-01T09:08:12.562Z,101722.66
2022-09-01T09:10:52.254Z,101715.97
2022-09-01T09:13:22.322Z,101707.88
2022-09-01T09:16:14.471Z,101718.31
2022-09-01T09:18:57.765Z,101714.16
2022-09-01T09:21:30.249Z,101713.28
2022-09-01T09:24:07.236Z,101712.13
2022-09-01T09:26:49.331Z,101711.44
2022-09-01T09:29:18.153Z,101712.03
2022-09-01T09:31:50.357Z,101710.78
2022-09-01T09:34:37.773Z,101703.09
2022-09-01T09:37:30.622Z,101701.78
2022-09-01T09:40:11.131Z,101690.44
2022-09-01T09:42:40.591Z,101692.28
2022-09-01T09:45:29.727Z,101689.97
2022-09-01T09:47:58.199Z,101689.09
2022-09-01T09:50:33.580Z,101695.88
2022-09-01T09:53:28.690Z,101699.00
2022-09-01T09:55:58.185Z,101688.47
2022-09-01T09:58:34.698Z,101683.75
2022-09-01T10:01:18.185Z,101687.34
2022-09-01T10:03:50.472Z,101692.16
2022-09-01T10:06:34.552Z,101686.31
2022-09-01T10:09:21.579Z,101684.34
2022-09-01T10:11:54.601Z,101683.28
2022-09-01T10:14:35.583Z,101687.41
2022-09-01T10:17:36.653Z,101689.97
2022-09-01T10:20:17.639Z,101692.44
2022-09-01T10:22:45.164Z,101684.78
2022-09-01T10:25:18.015Z,101669.28
2022-09-01T10:27:50.448Z,101672.16
2022-09-01T10:30:20.540Z,101677.56
2022-09-01T10:32:56.392Z,101673.06
2022-09-01T10:35:26.798Z,101663.47
2022-09-01T10:37:55.901Z,101664.84
2022-09-01T10:40:31.013Z,101657.03
2022-09-01T10:43:24.529Z,101667.06
2022-09-01T10:45:57.668Z,101660.41
2022-09-01T10:48:33.832Z,101654.88
2022-09-01T10:51:19.278Z,101653.38
2022-09-01T10:53:52.800Z,101655.59
2022-09-01T10:56:29.469Z,101653.84
2022-09-01T10:59:35.716Z,101648.72
2022-09-01T11:02:35.641Z,101645.59
2022-09-01T11:05:00.764Z,101645.53
2022-09-01T11:07:57.964Z,101651.75
2022-09-01T11:10:36.095Z,101643.63
2022-09-01T11:13:24.202Z,101649.13
2022-09-01T11:15:51.968Z,101647.59
2022-09-01T11:18:29.409Z,101654.47
2022-09-01T11:21:34.385Z,101649.59
2022-09-01T11:24:50.851Z,101643.56
2022-09-01T11:27:49.657Z,101641.44
2022-09-01T11:30:22.586Z,101645.59
2022-09-01T11:32:58.393Z,101642.75
2022-09-01T11:35:28.458Z,101632.94
2022-09-01T11:38:01.866Z,101628.16
2022-09-01T11:40:32.905Z,101640.63
2022-09-01T11:43:09.748Z,101639.25
2022-09-01T11:45:58.465Z,101636.28
2022-09-01T11:48:26.975Z,101627.97
2022-09-01T11:51:00.961Z,101623.69
2022-09-01T11:53:29.077Z,101629.94
2022-09-01T11:56:12.034Z,101635.31
2022-09-01T11:58:41.895Z,101639.06
2022-09-01T12:01:30.911Z,101634.44
2022-09-01T12:03:58.950Z,101628.47
2022-09-01T12:06:29.530Z,101628.81
2022-09-01T12:09:03.963Z,101623.09
2022-09-01T12:11:36.953Z,101619.59
2022-09-01T12:14:11.094Z,101621.59
2022-09-01T12:16:42.614Z,101617.44
2022-09-01T12:19:27.546Z,101613.94
2022-09-01T12:22:15.172Z,101608.22
2022-09-01T12:24:54.223Z,101613.47
2022-09-01T12:27:25.214Z,101617.13
2022-09-01T12:29:52.276Z,101613.03
2022-09-01T12:32:20.064Z,101609.78
2022-09-01T12:35:09.192Z,101599.25
2022-09-01T12:37:38.571Z,101607.88
2022-09-01T12:40:05.752Z,101601.25
2022-09-01T12:42:40.996Z,101603.66
2022-09-01T12:45:10.939Z,101599.75
2022-09-01T12:47:37.757Z,101594.28
2022-09-01T12:50:09.224Z,101594.16
2022-09-01T12:52:44.915Z,101602.97
2022-09-01T12:58:09.799Z,101596.41
2022-09-01T13:00:55.867Z,101594.59
2022-09-01T13:03:23.420Z,101589.97
2022-09-01T13:05:55.568Z,101585.81
2022-09-01T13:08:31.491Z,101577.13
2022-09-01T13:11:11.172Z,101580.63
2022-09-01T13:13:38.673Z,101579.03
2022-09-01T13:16:13.085Z,101583.06
2022-09-01T13:21:30.368Z,101571.97
2022-09-01T13:23:57.581Z,101569.47
2022-09-01T13:26:24.474Z,101570.34
2022-09-01T13:28:51.725Z,101556.84
2022-09-01T13:31:34.506Z,101567.69
2022-09-01T13:34:10.687Z,101563.63
2022-09-01T13:36:52.057Z,101563.13
2022-09-01T13:39:20.937Z,101553.13
2022-09-01T13:41:48.725Z,101553.50
2022-09-01T13:44:17.315Z,101555.19
2022-09-01T13:47:28.310Z,101552.97
2022-09-01T13:52:19.747Z,101545.38
2022-09-01T13:54:47.851Z,101539.41
2022-09-01T13:57:16.514Z,101538.72
2022-09-01T13:59:44.364Z,101532.66
2022-09-01T14:02:11.244Z,101535.50
2022-09-01T14:04:38.584Z,101538.78
2022-09-01T14:07:06.298Z,101538.09
2022-09-01T14:09:34.825Z,101531.84
2022-09-01T14:12:01.743Z,101524.56
2022-09-01T14:15:10.650Z,101530.50
2022-09-01T14:17:15.694Z,101526.66
2022-09-01T14:19:42.532Z,101532.00
2022-09-01T14:22:09.474Z,101521.31
2022-09-01T14:24:38.866Z,101521.69
2022-09-01T14:27:07.836Z,101519.00
2022-09-01T14:29:35.049Z,101513.72
2022-09-01T14:32:02.210Z,101516.81
2022-09-01T14:34:30.791Z,101519.72
2022-09-01T14:36:57.899Z,101517.50
2022-09-01T14:39:25.538Z,101513.78
2022-09-01T14:41:52.370Z,101507.84
2022-09-01T14:44:19.105Z,101499.53
2022-09-01T14:46:47.314Z,101503.78
2022-09-01T14:49:20.204Z,101499.06
2022-09-01T14:54:49.529Z,101491.31
2022-09-01T14:57:37.068Z,101491.09
2022-09-01T15:00:05.882Z,101490.47
2022-09-01T15:02:33.289Z,101483.50
2022-09-01T15:05:00.149Z,101490.47
2022-09-01T15:07:26.983Z,101482.53
2022-09-01T15:09:53.953Z,101476.94
2022-09-01T15:12:22.424Z,101480.66
2022-09-01T15:14:49.245Z,101474.91
2022-09-01T15:17:16.073Z,101472.88
2022-09-01T15:19:43.646Z,101467.13
2022-09-01T15:22:13.000Z,101467.13
2022-09-01T15:24:40.000Z,101467.31
2022-09-01T15:27:10.132Z,101464.41
2022-09-01T15:29:45.945Z,101457.66
2022-09-01T15:32:20.559Z,101459.16
2022-09-01T15:34:54.493Z,101445.13
2022-09-01T15:37:21.299Z,101444.63
2022-09-01T15:39:48.081Z,101443.28
2022-09-01T15:42:17.434Z,101444.13
2022-09-01T15:44:44.746Z,101440.75
2022-09-01T15:47:11.453Z,101445.47
2022-09-01T15:49:38.200Z,101437.72
2022-09-01T15:52:04.926Z,101437.00
2022-09-01T15:54:31.842Z,101439.56
2022-09-01T15:56:58.591Z,101436.69
2022-09-01T15:59:25.448Z,101433.63
2022-09-01T16:01:54.095Z,101435.00
2022-09-01T16:04:25.409Z,101428.56
2022-09-01T16:06:56.698Z,101423.31
2022-09-01T16:09:25.647Z,101421.47
2022-09-01T16:11:53.982Z,101424.19
2022-09-01T16:14:21.240Z,101419.47
2022-09-01T16:16:47.965Z,101413.84
2022-09-01T16:19:33.511Z,101411.31
2022-09-01T16:22:18.454Z,101407.09
2022-09-01T16:24:47.990Z,101406.25
2022-09-01T16:27:21.498Z,101398.16
2022-09-01T16:30:02.943Z,101396.63
2022-09-01T16:32:31.549Z,101400.66
2022-09-01T16:34:58.317Z,101400.50
2022-09-01T16:37:36.013Z,101398.13
2022-09-01T16:40:16.491Z,101402.38
2022-09-01T16:42:58.477Z,101400.19
2022-09-01T16:45:30.934Z,101401.69
2022-09-01T16:48:17.625Z,101407.59
2022-09-01T16:50:51.609Z,101401.50
2022-09-01T16:53:26.934Z,101395.09
2022-09-01T16:55:59.645Z,101400.50
2022-09-01T16:58:39.293Z,101403.00
2022-09-01T17:01:15.575Z,101410.63
2022-09-01T17:04:02.725Z,101407.53
2022-09-01T17:06:33.637Z,101404.16
2022-09-01T17:09:09.982Z,101397.53
2022-09-01T17:11:49.256Z,101400.38
2022-09-01T17:14:31.563Z,101405.50
2022-09-01T17:17:12.114Z,101397.94
2022-09-01T17:19:45.394Z,101397.00
2022-09-01T17:22:14.518Z,101398.41
2022-09-01T17:24:45.137Z,101397.69
2022-09-01T17:27:20.935Z,101394.72
2022-09-01T17:29:53.260Z,101398.00
2022-09-01T17:32:30.987Z,101397.16
2022-09-01T17:35:07.791Z,101396.81
2022-09-01T17:37:51.746Z,101390.91
2022-09-01T17:40:42.193Z,101389.75
2022-09-01T17:43:21.118Z,101388.88
2022-09-01T17:46:28.489Z,101390.56
2022-09-01T17:49:27.558Z,101386.66
2022-09-01T17:52:20.509Z,101380.59
2022-09-01T17:55:07.170Z,101383.28
2022-09-01T17:58:00.482Z,101385.50
2022-09-01T18:00:52.716Z,101388.84
2022-09-01T18:03:52.683Z,101384.28
2022-09-01T18:06:25.114Z,101388.66
2022-09-01T18:08:55.560Z,101383.59
2022-09-01T18:11:35.776Z,101385.47
2022-09-01T18:14:08.793Z,101387.81
2022-09-01T18:16:44.052Z,101385.91
2022-09-01T18:19:21.086Z,101381.66
2022-09-01T18:22:01.413Z,101385.72
2022-09-01T18:24:55.929Z,101384.84
2022-09-01T18:27:24.636Z,101381.94
2022-09-01T18:29:53.043Z,101381.94
2022-09-01T18:32:35.081Z,101381.91
2022-09-01T18:35:01.798Z,101383.22
2022-09-01T18:38:01.393Z,101395.03
2022-09-01T18:40:51.302Z,101381.50
2022-09-01T18:43:26.919Z,101381.84
2022-09-01T18:46:37.365Z,101375.06
2022-09-01T18:49:24.883Z,101380.81
2022-09-01T18:52:05.267Z,101380.25
2022-09-01T18:54:38.235Z,101376.69
2022-09-01T18:57:07.689Z,101380.19
2022-09-01T18:59:56.277Z,101378.97
2022-09-01T19:02:23.632Z,101377.66
2022-09-01T19:04:57.541Z,101384.91
2022-09-01T19:07:39.683Z,101380.97
2022-09-01T19:10:06.555Z,101383.06
2022-09-01T19:12:48.890Z,101377.13
2022-09-01T19:15:35.093Z,101385.38
2022-09-01T19:18:13.462Z,101387.53
2022-09-01T19:21:06.469Z,101384.16
2022-09-01T19:23:51.652Z,101381.75
2022-09-01T19:26:22.651Z,101375.81
2022-09-01T19:29:05.234Z,101379.69
2022-09-01T19:31:35.146Z,101378.63
2022-09-01T19:34:25.628Z,101376.91
2022-09-01T19:36:56.141Z,101383.09
2022-09-01T19:39:50.873Z,101379.56
2022-09-01T19:42:20.121Z,101383.47
2022-09-01T19:45:25.864Z,101371.38
2022-09-01T19:48:04.278Z,101375.72
2022-09-01T19:50:48.576Z,101377.56
2022-09-01T19:53:32.973Z,101377.09
2022-09-01T19:56:02.473Z,101380.19
2022-09-01T19:58:51.672Z,101378.38
2022-09-01T20:01:30.747Z,101382.09
2022-09-01T20:04:11.514Z,101378.25
2022-09-01T20:06:43.440Z,101376.00
2022-09-01T20:09:23.227Z,101372.53
2022-09-01T20:11:59.002Z,101370.22
2022-09-01T20:14:25.718Z,101369.72
2022-09-01T20:16:57.847Z,101375.84
2022-09-01T20:22:41.227Z,101376.69
2022-09-01T20:25:13.292Z,101365.22
2022-09-01T20:27:56.169Z,101366.38
2022-09-01T20:30:29.494Z,101363.31
2022-09-01T20:33:41.832Z,101359.47
2022-09-01T20:36:25.049Z,101361.91
2022-09-01T20:39:21.248Z,101362.75
2022-09-01T20:42:08.398Z,101348.91
2022-09-01T20:44:48.215Z,101350.91
2022-09-01T20:47:15.076Z,101346.38
2022-09-01T20:49:42.444Z,101349.75
2022-09-01T20:52:27.871Z,101350.91
2022-09-01T20:55:04.174Z,101346.38
2022-09-01T20:57:47.383Z,101347.53
2022-09-01T21:00:25.847Z,101344.97
2022-09-01T21:03:02.780Z,101335.81
2022-09-01T21:05:36.121Z,101342.13
2022-09-01T21:08:14.061Z,101343.28
2022-09-01T21:10:40.906Z,101348.97
2022-09-01T21:14:08.923Z,101336.66
2022-09-01T21:16:56.372Z,101335.38
2022-09-01T21:19:28.221Z,101327.75
2022-09-01T21:22:07.014Z,101324.38
2022-09-01T21:24:35.005Z,101328.91
2022-09-01T21:27:07.329Z,101330.91
2022-09-01T21:29:55.712Z,101329.34
2022-09-01T21:32:23.243Z,101317.03
2022-09-01T21:34:50.671Z,101317.59
2022-09-01T21:37:18.584Z,101319.59
2022-09-01T21:39:45.409Z,101319.22
2022-09-01T21:42:13.138Z,101315.13
2022-09-01T21:44:41.251Z,101320.19
2022-09-01T21:47:08.387Z,101314.09
2022-09-01T21:49:35.290Z,101322.19
2022-09-01T21:52:02.481Z,101323.88
2022-09-01T21:54:29.302Z,101330.41
2022-09-01T21:56:56.226Z,101320.66
2022-09-01T21:59:23.202Z,101318.78
2022-09-01T22:01:49.988Z,101320.78
2022-09-01T22:04:18.313Z,101317.38
2022-09-01T22:06:46.435Z,101311.16
2022-09-01T22:09:20.342Z,101308.47
2022-09-01T22:11:49.190Z,101321.06
2022-09-01T22:14:16.190Z,101318.84
2022-09-01T22:16:43.071Z,101327.88
2022-09-01T22:19:09.880Z,101316.97
2022-09-01T22:21:37.891Z,101315.28
2022-09-01T22:24:05.808Z,101313.75
2022-09-01T22:26:34.112Z,101308.78
2022-09-01T22:29:04.697Z,101305.22
2022-09-01T22:31:33.254Z,101301.53
2022-09-01T22:34:01.113Z,101309.19
2022-09-01T22:36:31.470Z,101302.28
2022-09-01T22:38:59.729Z,101302.28
2022-09-01T22:41:28.985Z,101298.06
2022-09-01T22:43:57.944Z,101300.38
2022-09-01T22:46:27.805Z,101290.31
2022-09-01T22:48:59.036Z,101294.97
2022-09-01T22:51:26.993Z,101286.91
2022-09-01T22:53:54.660Z,101287.50
2022-09-01T22:56:28.148Z,101290.19
2022-09-01T22:58:57.924Z,101286.81
2022-09-01T23:01:30.130Z,101285.81
2022-09-01T23:04:00.133Z,101286.69
2022-09-01T23:06:29.715Z,101286.41
2022-09-01T23:08:59.381Z,101282.06
2022-09-01T23:11:27.106Z,101273.00
2022-09-01T23:13:54.847Z,101273.16
2022-09-01T23:16:23.185Z,101273.19
2022-09-01T23:18:51.483Z,101265.28
2022-09-01T23:21:21.913Z,101268.69
2022-09-01T23:23:48.889Z,101259.91
2022-09-01T23:26:26.354Z,101262.88
2022-09-01T23:28:53.248Z,101252.84
2022-09-01T23:31:24.672Z,101257.97
2022-09-01T23:33:51.582Z,101251.44
2022-09-01T23:36:20.606Z,101256.03
2022-09-01T23:38:48.021Z,101248.09
2022-09-01T23:41:23.364Z,101248.66
2022-09-01T23:43:51.745Z,101245.69
2022-09-01T23:46:21.612Z,101240.88
2022-09-01T23:48:48.463Z,101235.72
2022-09-01T23:51:17.997Z,101233.03
2022-09-01T23:53:46.550Z,101236.16
2022-09-01T23:56:16.327Z,101234.63
2022-09-01T23:58:43.679Z,101235.34
